createdAt,value
2022-12-16T00:02:07.661Z,0.20
2022-12-16T00:04:34.440Z,0.20
2022-12-16T00:07:01.180Z,0.10
2022-12-16T00:09:27.933Z,0.10
2022-12-16T00:11:54.780Z,0.20
2022-12-16T00:14:21.466Z,0.30
2022-12-16T00:16:48.207Z,0.40
2022-12-16T00:19:15.067Z,0.40
2022-12-16T00:21:41.778Z,0.30
2022-12-16T00:24:08.593Z,0.20
2022-12-16T00:26:35.413Z,0.10
2022-12-16T00:29:02.158Z,0.00
2022-12-16T00:31:29.079Z,0.00
2022-12-16T00:33:57.442Z,-0.10
2022-12-16T00:36:24.315Z,0.00
2022-12-16T00:38:52.705Z,0.20
2022-12-16T00:41:21.208Z,0.30
2022-12-16T00:43:48.238Z,0.30
2022-12-16T00:46:15.068Z,0.30
2022-12-16T00:48:41.910Z,0.20
2022-12-16T00:51:08.717Z,0.10
2022-12-16T00:53:36.184Z,0.00
2022-12-16T00:56:11.017Z,-0.10
2022-12-16T00:58:37.984Z,-0.20
2022-12-16T01:01:05.389Z,-0.20
2022-12-16T01:03:32.539Z,-0.30
2022-12-16T01:05:59.735Z,-0.40
2022-12-16T01:08:27.036Z,-0.30
2022-12-16T01:10:57.706Z,-0.30
2022-12-16T01:13:25.971Z,-0.50
2022-12-16T01:15:53.022Z,-0.50
2022-12-16T01:18:19.896Z,-0.40
2022-12-16T01:20:46.824Z,-0.40
2022-12-16T01:23:13.531Z,-0.40
2022-12-16T01:25:40.257Z,-0.40
2022-12-16T01:28:07.197Z,-0.50
2022-12-16T01:30:35.555Z,-0.50
2022-12-16T01:33:02.527Z,-0.40
2022-12-16T01:35:52.625Z,-0.60
2022-12-16T01:38:17.433Z,-0.60
2022-12-16T01:40:44.251Z,-0.50
2022-12-16T01:43:13.909Z,-0.40
2022-12-16T01:45:40.824Z,-0.30
2022-12-16T01:48:34.155Z,-0.30
2022-12-16T01:51:07.361Z,-0.30
2022-12-16T01:53:35.930Z,-0.30
2022-12-16T01:56:03.434Z,-0.20
2022-12-16T01:58:34.253Z,0.00
2022-12-16T02:01:03.702Z,0.20
2022-12-16T02:03:35.044Z,0.20
2022-12-16T02:06:05.409Z,0.40
2022-12-16T02:08:32.369Z,0.50
2022-12-16T02:11:08.304Z,0.50
2022-12-16T02:13:46.959Z,0.60
2022-12-16T02:16:17.326Z,0.70
2022-12-16T02:19:05.389Z,0.90
2022-12-16T02:21:54.210Z,1.10
2022-12-16T02:24:39.029Z,1.20
2022-12-16T02:27:41.913Z,1.30
2022-12-16T02:30:27.351Z,1.30
2022-12-16T02:32:59.861Z,1.40
2022-12-16T02:35:43.981Z,1.40
2022-12-16T02:38:25.429Z,1.40
2022-12-16T02:40:53.917Z,1.50
2022-12-16T02:43:39.525Z,1.40
2022-12-16T02:46:08.132Z,1.40
2022-12-16T02:48:35.160Z,1.40
2022-12-16T02:51:02.020Z,1.40
2022-12-16T02:53:31.328Z,1.30
2022-12-16T02:56:11.124Z,1.40
2022-12-16T02:58:50.404Z,1.40
2022-12-16T03:01:22.975Z,1.40
2022-12-16T03:03:57.504Z,1.50
2022-12-16T03:06:26.350Z,1.50
2022-12-16T03:08:57.691Z,1.50
2022-12-16T03:11:27.525Z,1.50
2022-12-16T03:13:56.019Z,1.60
2022-12-16T03:16:27.241Z,1.60
2022-12-16T03:19:02.186Z,1.60
2022-12-16T03:21:43.270Z,1.70
2022-12-16T03:24:13.695Z,1.70
2022-12-16T03:26:53.990Z,1.70
2022-12-16T03:29:43.692Z,1.70
2022-12-16T03:32:17.746Z,1.70
2022-12-16T03:34:53.095Z,1.70
2022-12-16T03:37:24.346Z,1.70
2022-12-16T03:39:55.690Z,1.70
2022-12-16T03:42:23.650Z,1.80
2022-12-16T03:44:50.710Z,1.80
2022-12-16T03:47:23.424Z,1.80
2022-12-16T03:49:50.932Z,1.80
2022-12-16T03:52:17.994Z,1.80
2022-12-16T03:54:44.751Z,1.80
2022-12-16T03:57:15.387Z,1.80
2022-12-16T03:59:43.278Z,1.80
2022-12-16T04:02:10.370Z,1.80
2022-12-16T04:04:37.297Z,1.90
2022-12-16T04:07:24.315Z,2.00
2022-12-16T04:09:52.655Z,1.90
2022-12-16T04:12:38.791Z,1.90
2022-12-16T04:15:25.587Z,1.90
2022-12-16T04:18:11.238Z,1.90
2022-12-16T04:21:01.257Z,1.80
2022-12-16T04:23:49.187Z,1.90
2022-12-16T04:26:16.381Z,1.90
2022-12-16T04:28:43.224Z,1.90
2022-12-16T04:31:10.202Z,1.90
2022-12-16T04:33:55.916Z,1.90
2022-12-16T04:36:41.126Z,1.90
2022-12-16T04:39:26.772Z,1.90
2022-12-16T04:42:13.607Z,1.90
2022-12-16T04:44:58.973Z,1.80
2022-12-16T04:47:44.478Z,1.80
2022-12-16T04:50:30.071Z,1.80
2022-12-16T04:53:15.653Z,1.80
2022-12-16T04:56:04.466Z,1.80
2022-12-16T04:58:50.219Z,1.70
2022-12-16T05:01:35.945Z,1.80
2022-12-16T05:04:21.694Z,1.80
2022-12-16T05:07:23.837Z,1.70
2022-12-16T05:10:09.564Z,1.70
2022-12-16T05:12:56.036Z,1.70
2022-12-16T05:15:41.670Z,1.70
2022-12-16T05:18:29.832Z,1.50
2022-12-16T05:21:20.681Z,1.50
2022-12-16T05:24:07.041Z,1.50
2022-12-16T05:26:52.778Z,1.40
2022-12-16T05:29:38.401Z,1.30
2022-12-16T05:32:23.892Z,1.30
2022-12-16T05:35:09.399Z,1.20
2022-12-16T05:37:54.836Z,1.20
2022-12-16T05:40:40.376Z,1.10
2022-12-16T05:43:25.833Z,1.00
2022-12-16T05:46:11.327Z,1.00
2022-12-16T05:48:58.583Z,1.00
2022-12-16T05:51:44.043Z,1.00
2022-12-16T05:54:29.762Z,0.90
2022-12-16T05:57:15.188Z,0.80
2022-12-16T06:00:00.552Z,0.70
2022-12-16T06:02:46.536Z,0.80
2022-12-16T06:05:31.839Z,0.70
2022-12-16T06:08:17.516Z,0.60
2022-12-16T06:11:03.105Z,0.50
2022-12-16T06:13:48.571Z,0.50
2022-12-16T06:16:34.210Z,0.50
2022-12-16T06:19:19.698Z,0.40
2022-12-16T06:22:18.801Z,0.40
2022-12-16T06:25:05.444Z,0.50
2022-12-16T06:27:51.343Z,0.50
2022-12-16T06:30:36.986Z,0.50
2022-12-16T06:33:22.452Z,0.50
2022-12-16T06:36:07.803Z,0.50
2022-12-16T06:38:53.467Z,0.50
2022-12-16T06:41:39.055Z,0.60
2022-12-16T06:44:24.659Z,0.50
2022-12-16T06:47:10.189Z,0.50
2022-12-16T06:49:55.693Z,0.50
2022-12-16T06:52:41.235Z,0.50
2022-12-16T06:55:26.685Z,0.50
2022-12-16T06:58:18.262Z,0.50
2022-12-16T07:01:03.937Z,0.50
2022-12-16T07:03:49.713Z,0.50
2022-12-16T07:06:35.205Z,0.50
2022-12-16T07:09:20.758Z,0.50
2022-12-16T07:12:06.265Z,0.50
2022-12-16T07:14:51.889Z,0.50
2022-12-16T07:17:37.174Z,0.50
2022-12-16T07:20:23.132Z,0.50
2022-12-16T07:23:13.321Z,0.50
2022-12-16T07:26:04.147Z,0.50
2022-12-16T07:28:49.741Z,0.50
2022-12-16T07:31:35.281Z,0.50
2022-12-16T07:34:20.577Z,0.50
2022-12-16T07:37:06.116Z,0.40
2022-12-16T07:39:55.136Z,0.50
2022-12-16T07:42:42.153Z,0.40
2022-12-16T07:45:28.157Z,0.40
2022-12-16T07:48:13.909Z,0.40
2022-12-16T07:50:59.297Z,0.40
2022-12-16T07:53:45.230Z,0.40
2022-12-16T07:56:30.709Z,0.50
2022-12-16T07:59:15.974Z,0.60
2022-12-16T08:02:01.294Z,0.50
2022-12-16T08:04:46.634Z,0.50
2022-12-16T08:07:32.209Z,0.50
2022-12-16T08:10:17.887Z,0.50
2022-12-16T08:13:03.647Z,0.50
2022-12-16T08:15:49.625Z,0.50
2022-12-16T08:18:34.928Z,0.60
2022-12-16T08:21:20.560Z,0.70
2022-12-16T08:24:06.859Z,0.70
2022-12-16T08:26:52.149Z,0.80
2022-12-16T08:29:49.295Z,0.80
2022-12-16T08:32:35.561Z,0.90
2022-12-16T08:35:21.633Z,1.00
2022-12-16T08:38:12.258Z,1.00
2022-12-16T08:41:02.802Z,1.00
2022-12-16T08:43:53.446Z,1.00
2022-12-16T08:46:41.429Z,1.10
2022-12-16T08:49:26.810Z,1.10
2022-12-16T08:52:12.362Z,1.10
2022-12-16T08:54:59.962Z,1.10
2022-12-16T08:57:45.377Z,1.10
2022-12-16T09:00:31.489Z,1.20
2022-12-16T09:03:18.132Z,1.20
2022-12-16T09:06:04.026Z,1.20
2022-12-16T09:08:50.008Z,1.30
2022-12-16T09:11:35.626Z,1.40
2022-12-16T09:14:20.922Z,1.40
2022-12-16T09:17:06.683Z,1.30
2022-12-16T09:19:52.274Z,1.50
2022-12-16T09:22:39.261Z,1.50
2022-12-16T09:25:24.921Z,1.50
2022-12-16T09:28:10.764Z,1.50
2022-12-16T09:30:56.530Z,1.60
2022-12-16T09:33:42.004Z,1.70
2022-12-16T09:36:27.575Z,1.70
2022-12-16T09:39:13.068Z,1.80
2022-12-16T09:42:02.035Z,1.80
2022-12-16T09:44:58.391Z,1.90
2022-12-16T09:47:59.942Z,2.00
2022-12-16T09:50:49.918Z,2.10
2022-12-16T09:53:40.918Z,2.20
2022-12-16T09:56:35.358Z,2.20
2022-12-16T09:59:24.685Z,2.30
2022-12-16T10:02:11.239Z,2.40
2022-12-16T10:04:56.797Z,2.50
2022-12-16T10:07:43.245Z,2.50
2022-12-16T10:10:52.382Z,2.60
2022-12-16T10:14:00.240Z,2.70
2022-12-16T10:17:00.441Z,2.80
2022-12-16T10:19:58.771Z,2.90
2022-12-16T10:22:59.418Z,3.00
2022-12-16T10:25:58.414Z,3.00
2022-12-16T10:29:02.143Z,3.10
2022-12-16T10:31:47.938Z,3.20
2022-12-16T10:34:38.532Z,3.20
2022-12-16T10:37:24.360Z,3.30
2022-12-16T10:40:20.945Z,3.40
2022-12-16T10:43:12.490Z,3.50
2022-12-16T10:46:03.269Z,3.60
2022-12-16T10:48:56.582Z,3.70
2022-12-16T10:51:47.419Z,3.70
2022-12-16T10:54:38.392Z,3.80
2022-12-16T10:57:45.952Z,3.80
2022-12-16T11:00:36.214Z,3.80
2022-12-16T11:03:40.373Z,4.10
2022-12-16T11:06:27.442Z,4.20
2022-12-16T11:09:12.840Z,4.60
2022-12-16T11:11:58.290Z,4.90
2022-12-16T11:14:59.540Z,4.80
2022-12-16T11:17:49.491Z,4.70
2022-12-16T11:20:43.057Z,4.60
2022-12-16T11:23:40.799Z,4.60
2022-12-16T11:26:36.305Z,4.60
2022-12-16T11:29:32.725Z,4.70
2022-12-16T11:32:41.378Z,4.70
2022-12-16T11:35:34.576Z,4.70
2022-12-16T11:38:21.331Z,4.70
2022-12-16T11:41:08.876Z,4.80
2022-12-16T11:43:59.363Z,4.80
2022-12-16T11:46:46.974Z,4.80
2022-12-16T11:49:50.950Z,4.90
2022-12-16T11:52:41.652Z,4.90
2022-12-16T11:56:04.004Z,5.00
2022-12-16T11:58:55.481Z,5.10
2022-12-16T12:01:55.469Z,5.10
2022-12-16T12:04:41.705Z,5.20
2022-12-16T12:07:42.737Z,5.20
2022-12-16T12:11:03.036Z,5.20
2022-12-16T12:13:57.425Z,5.20
2022-12-16T12:16:52.050Z,5.20
2022-12-16T12:19:58.593Z,5.20
2022-12-16T12:22:56.681Z,5.10
2022-12-16T12:25:44.798Z,5.10
2022-12-16T12:29:08.116Z,5.10
2022-12-16T12:32:00.960Z,5.00
2022-12-16T12:35:05.183Z,5.40
2022-12-16T12:38:35.753Z,5.10
2022-12-16T12:41:20.934Z,5.10
2022-12-16T12:44:12.428Z,5.00
2022-12-16T12:47:07.737Z,5.00
2022-12-16T12:50:19.146Z,4.90
2022-12-16T12:53:22.573Z,4.80
2022-12-16T12:56:22.833Z,4.60
2022-12-16T12:59:11.746Z,4.60
2022-12-16T13:02:01.196Z,4.60
2022-12-16T13:04:48.918Z,4.70
2022-12-16T13:07:34.784Z,4.80
2022-12-16T13:10:38.873Z,4.80
2022-12-16T13:13:33.904Z,4.80
2022-12-16T13:16:20.800Z,4.80
2022-12-16T13:19:09.546Z,4.80
2022-12-16T13:21:56.890Z,4.80
2022-12-16T13:24:45.623Z,4.80
2022-12-16T13:27:35.612Z,4.80
2022-12-16T13:30:30.348Z,4.80
2022-12-16T13:33:20.211Z,4.70
2022-12-16T13:36:14.671Z,5.60
2022-12-16T13:39:08.641Z,4.80
2022-12-16T13:41:54.769Z,4.70
2022-12-16T13:45:02.053Z,4.70
2022-12-16T13:47:50.032Z,4.70
2022-12-16T13:50:55.412Z,4.70
2022-12-16T13:53:46.542Z,4.60
2022-12-16T13:56:41.846Z,4.60
2022-12-16T13:59:37.803Z,4.60
2022-12-16T14:02:41.686Z,4.60
2022-12-16T14:05:41.689Z,4.60
2022-12-16T14:08:35.501Z,4.50
2022-12-16T14:11:32.800Z,4.70
2022-12-16T14:14:36.345Z,5.00
2022-12-16T14:17:25.395Z,5.40
2022-12-16T14:20:32.045Z,5.70
2022-12-16T14:23:56.567Z,6.10
2022-12-16T14:26:43.662Z,6.50
2022-12-16T14:29:47.033Z,6.80
2022-12-16T14:32:53.157Z,7.00
2022-12-16T14:35:39.865Z,7.10
2022-12-16T14:38:46.579Z,7.10
2022-12-16T14:41:42.200Z,7.00
2022-12-16T14:44:37.360Z,6.40
2022-12-16T14:47:23.087Z,5.80
2022-12-16T14:50:13.024Z,5.20
2022-12-16T14:52:59.210Z,4.80
2022-12-16T14:55:51.214Z,4.60
2022-12-16T14:58:42.488Z,4.30
2022-12-16T15:01:36.886Z,4.20
2022-12-16T15:04:31.828Z,4.00
2022-12-16T15:07:18.290Z,3.90
2022-12-16T15:10:07.425Z,3.80
2022-12-16T15:12:59.105Z,3.80
2022-12-16T15:15:56.350Z,3.80
2022-12-16T15:18:57.170Z,3.70
2022-12-16T15:21:42.803Z,3.70
2022-12-16T15:24:33.537Z,3.70
2022-12-16T15:27:37.730Z,3.60
2022-12-16T15:30:55.633Z,3.50
2022-12-16T15:34:01.521Z,3.40
2022-12-16T15:36:50.434Z,3.30
2022-12-16T15:39:42.429Z,3.30
2022-12-16T15:42:45.127Z,3.30
2022-12-16T15:45:36.429Z,3.20
2022-12-16T15:48:44.491Z,3.10
2022-12-16T15:51:50.128Z,3.00
2022-12-16T15:54:39.160Z,2.90
2022-12-16T15:57:49.568Z,2.80
2022-12-16T16:00:44.791Z,2.80
2022-12-16T16:03:36.518Z,2.80
2022-12-16T16:06:22.353Z,2.70
2022-12-16T16:09:11.198Z,2.60
2022-12-16T16:11:58.812Z,2.60
2022-12-16T16:15:00.985Z,2.60
2022-12-16T16:17:46.193Z,2.60
2022-12-16T16:20:36.674Z,2.60
2022-12-16T16:23:22.253Z,2.50
2022-12-16T16:26:08.172Z,2.60
2022-12-16T16:28:54.155Z,2.50
2022-12-16T16:31:39.986Z,2.50
2022-12-16T16:34:25.404Z,2.50
2022-12-16T16:37:16.186Z,2.60
2022-12-16T16:40:02.970Z,2.60
2022-12-16T16:42:48.551Z,2.60
2022-12-16T16:45:34.474Z,2.60
2022-12-16T16:48:30.617Z,2.50
2022-12-16T16:51:17.509Z,2.60
2022-12-16T16:54:04.001Z,2.60
2022-12-16T16:56:54.272Z,2.50
2022-12-16T16:59:43.868Z,2.50
2022-12-16T17:02:41.120Z,2.50
2022-12-16T17:05:29.270Z,2.50
2022-12-16T17:08:15.032Z,2.50
2022-12-16T17:11:01.329Z,2.40
2022-12-16T17:13:46.938Z,2.40
2022-12-16T17:16:33.188Z,2.40
2022-12-16T17:19:22.370Z,2.30
2022-12-16T17:22:07.961Z,2.30
2022-12-16T17:24:54.577Z,2.20
2022-12-16T17:27:43.901Z,2.20
2022-12-16T17:30:43.504Z,2.20
2022-12-16T17:33:40.914Z,2.20
2022-12-16T17:36:32.046Z,2.10
2022-12-16T17:39:27.848Z,2.10
2022-12-16T17:42:14.996Z,2.00
2022-12-16T17:45:00.333Z,2.10
2022-12-16T17:47:45.769Z,2.10
2022-12-16T17:50:31.876Z,2.10
2022-12-16T17:53:18.085Z,2.00
2022-12-16T17:56:03.805Z,2.00
2022-12-16T17:58:54.709Z,2.00
2022-12-16T18:01:41.503Z,2.00
2022-12-16T18:04:27.670Z,2.00
2022-12-16T18:07:13.201Z,1.90
2022-12-16T18:09:58.719Z,1.90
2022-12-16T18:12:44.826Z,1.80
2022-12-16T18:15:31.329Z,1.80
2022-12-16T18:18:17.369Z,1.80
2022-12-16T18:21:02.857Z,1.80
2022-12-16T18:23:49.401Z,1.90
2022-12-16T18:26:34.825Z,1.90
2022-12-16T18:29:20.569Z,1.80
2022-12-16T18:32:07.917Z,1.70
2022-12-16T18:34:54.593Z,1.70
2022-12-16T18:37:40.524Z,1.60
2022-12-16T18:40:27.297Z,1.60
2022-12-16T18:43:13.177Z,1.50
2022-12-16T18:45:58.789Z,1.50
2022-12-16T18:48:44.553Z,1.50
2022-12-16T18:51:30.096Z,1.40
2022-12-16T18:54:16.280Z,1.40
2022-12-16T18:57:09.400Z,1.50
2022-12-16T18:59:56.317Z,1.30
2022-12-16T19:02:43.523Z,1.30
2022-12-16T19:05:29.386Z,1.30
2022-12-16T19:08:15.070Z,1.30
2022-12-16T19:11:00.759Z,1.20
2022-12-16T19:13:45.948Z,1.20
2022-12-16T19:16:34.442Z,1.20
2022-12-16T19:19:20.718Z,1.20
2022-12-16T19:22:07.959Z,1.20
2022-12-16T19:24:55.051Z,1.10
2022-12-16T19:27:42.530Z,1.10
2022-12-16T19:30:30.326Z,1.10
2022-12-16T19:33:15.752Z,1.10
2022-12-16T19:36:01.928Z,0.90
2022-12-16T19:38:53.460Z,1.10
2022-12-16T19:41:42.533Z,1.00
2022-12-16T19:44:28.877Z,1.00
2022-12-16T19:47:14.493Z,1.00
2022-12-16T19:50:02.561Z,1.00
2022-12-16T19:52:48.022Z,1.00
2022-12-16T19:55:33.722Z,1.00
2022-12-16T19:58:19.646Z,0.90
2022-12-16T20:01:05.393Z,0.90
2022-12-16T20:03:52.372Z,0.90
2022-12-16T20:06:43.914Z,0.90
2022-12-16T20:09:29.448Z,0.90
2022-12-16T20:12:15.045Z,0.80
2022-12-16T20:15:00.693Z,0.80
2022-12-16T20:17:46.150Z,0.80
2022-12-16T20:20:32.735Z,0.80
2022-12-16T20:23:18.342Z,0.70
2022-12-16T20:26:15.828Z,0.90
2022-12-16T20:29:01.528Z,0.70
2022-12-16T20:31:47.500Z,0.70
2022-12-16T20:34:34.745Z,0.70
2022-12-16T20:37:20.243Z,0.70
2022-12-16T20:40:06.016Z,0.70
2022-12-16T20:42:51.619Z,0.70
2022-12-16T20:45:38.848Z,0.60
2022-12-16T20:48:24.499Z,0.70
2022-12-16T20:51:21.043Z,0.70
2022-12-16T20:54:10.540Z,0.70
2022-12-16T20:56:55.777Z,0.80
2022-12-16T20:59:41.770Z,0.90
2022-12-16T21:02:34.479Z,1.10
2022-12-16T21:05:21.176Z,1.10
2022-12-16T21:08:06.822Z,1.10
2022-12-16T21:10:56.054Z,1.10
2022-12-16T21:13:44.620Z,1.20
2022-12-16T21:16:32.983Z,1.20
2022-12-16T21:19:21.021Z,1.10
2022-12-16T21:22:06.763Z,1.10
2022-12-16T21:24:52.193Z,1.10
2022-12-16T21:27:39.089Z,1.20
2022-12-16T21:30:28.805Z,1.10
2022-12-16T21:33:16.206Z,1.10
2022-12-16T21:36:02.034Z,1.00
2022-12-16T21:38:47.602Z,1.00
2022-12-16T21:41:33.153Z,0.90
2022-12-16T21:44:18.382Z,0.90
2022-12-16T21:47:04.337Z,0.80
2022-12-16T21:49:56.146Z,0.80
2022-12-16T21:52:42.471Z,0.70
2022-12-16T21:55:28.338Z,0.70
2022-12-16T21:58:15.244Z,0.80
2022-12-16T22:01:01.386Z,0.70
2022-12-16T22:03:57.036Z,0.80
2022-12-16T22:06:48.402Z,0.70
2022-12-16T22:09:35.068Z,0.60
2022-12-16T22:12:20.819Z,0.60
2022-12-16T22:15:06.481Z,0.60
2022-12-16T22:20:58.866Z,0.60
2022-12-16T22:23:48.829Z,0.60
2022-12-16T22:26:40.023Z,0.50
2022-12-16T22:29:30.603Z,0.40
2022-12-16T22:32:25.530Z,0.40
2022-12-16T22:35:11.396Z,0.40
2022-12-16T22:37:57.915Z,0.50
2022-12-16T22:40:46.507Z,0.50
2022-12-16T22:43:35.403Z,0.50
2022-12-16T22:46:21.849Z,0.50
2022-12-16T22:49:08.412Z,0.40
2022-12-16T22:51:57.697Z,0.40
2022-12-16T22:54:43.392Z,0.40
2022-12-16T22:57:32.463Z,0.30
2022-12-16T23:00:19.460Z,0.30
2022-12-16T23:03:07.366Z,0.20
2022-12-16T23:05:54.386Z,0.10
2022-12-16T23:08:40.722Z,0.00
2022-12-16T23:11:26.480Z,0.00
2022-12-16T23:14:11.761Z,0.00
2022-12-16T23:16:58.200Z,0.00
2022-12-16T23:19:45.170Z,0.00
2022-12-16T23:22:30.556Z,-0.10
2022-12-16T23:25:16.920Z,-0.10
2022-12-16T23:28:04.119Z,-0.20
2022-12-16T23:30:54.541Z,-0.20
2022-12-16T23:33:42.194Z,-0.10
2022-12-16T23:36:29.551Z,-0.30
2022-12-16T23:39:15.583Z,-0.30
2022-12-16T23:42:02.169Z,-0.30
2022-12-16T23:44:55.314Z,-0.30
2022-12-16T23:47:43.891Z,-0.30
2022-12-16T23:50:29.634Z,-0.20
2022-12-16T23:53:37.175Z,-0.10
2022-12-16T23:56:24.908Z,-0.30
2022-12-16T23:59:12.237Z,-0.20
